Time;durP1;ratioP1;P1;durP2;ratioP2;P2;SDS_P1;SDS_P2;PMS_P1;PMS_P2;Temp;Humidity;BMP_temperature;BMP_pressure;BME280_temperature;BME280_humidity;BME280_pressure;Samples;Min_cycle;Max_cycle;Signal;HPM_P1;HPM_P2
2021/03/10 00:02:11;;;;;;;24.83;12.03;;;;;;;2.08;66.35;101425.41;5155404;27;20438;-50
2021/03/10 00:04:38;;;;;;;21.80;12.20;;;;;;;2.20;65.63;101427.25;5123657;27;20513;-55
2021/03/10 00:07:04;;;;;;;34.67;13.17;;;;;;;2.13;66.43;101420.72;5137545;27;20573;-53
2021/03/10 00:09:31;;;;;;;27.27;13.00;;;;;;;2.04;67.39;101422.47;5135800;27;20937;-51
2021/03/10 00:11:58;;;;;;;23.57;12.00;;;;;;;2.07;66.83;101421.09;5137400;27;20721;-54
2021/03/10 00:14:24;;;;;;;21.57;12.10;;;;;;;2.00;66.79;101434.94;5132387;27;20450;-54
2021/03/10 00:16:52;;;;;;;26.00;12.60;;;;;;;2.04;66.86;101427.56;5137192;27;20488;-51
2021/03/10 00:19:20;;;;;;;30.80;13.30;;;;;;;2.01;66.67;101430.75;5119744;27;20824;-53
2021/03/10 00:21:47;;;;;;;23.10;12.30;;;;;;;2.04;66.57;101432.66;5144794;27;20524;-53
2021/03/10 00:24:14;;;;;;;25.73;13.07;;;;;;;2.11;66.75;101428.22;5141273;27;20825;-52
2021/03/10 00:26:40;;;;;;;28.10;13.47;;;;;;;2.06;66.28;101429.50;5155703;27;20545;-52
2021/03/10 00:29:07;;;;;;;26.37;13.13;;;;;;;2.11;66.59;101433.31;5127674;27;20457;-52
2021/03/10 00:31:34;;;;;;;26.10;12.10;;;;;;;2.12;66.90;101427.50;5136393;27;20464;-54
2021/03/10 00:34:02;;;;;;;22.67;12.17;;;;;;;2.17;66.42;101422.78;5123711;27;20512;-49
2021/03/10 00:36:28;;;;;;;23.73;12.10;;;;;;;2.07;66.32;101431.28;5140858;27;20565;-55
2021/03/10 00:38:55;;;;;;;26.03;12.90;;;;;;;1.99;66.20;101427.16;5140924;27;20484;-53
2021/03/10 00:41:21;;;;;;;25.97;12.20;;;;;;;1.94;65.86;101433.53;5152078;27;20422;-53
2021/03/10 00:43:48;;;;;;;24.70;12.27;;;;;;;1.93;66.04;101432.63;5151904;27;20442;-54
2021/03/10 00:46:15;;;;;;;25.17;12.97;;;;;;;1.87;66.22;101427.88;5152130;27;20446;-57
2021/03/10 00:48:41;;;;;;;26.00;12.60;;;;;;;1.84;66.38;101436.91;5141167;27;20462;-56
2021/03/10 00:51:09;;;;;;;24.17;12.33;;;;;;;1.85;66.54;101428.50;5153613;27;20466;-51
2021/03/10 00:53:35;;;;;;;23.80;12.33;;;;;;;1.97;66.43;101432.13;5140285;27;20458;-54
2021/03/10 00:56:02;;;;;;;24.73;11.77;;;;;;;1.98;66.47;101428.81;5151662;27;20455;-54
2021/03/10 00:58:29;;;;;;;25.60;12.47;;;;;;;1.99;66.51;101433.16;5154204;27;20791;-49
2021/03/10 01:00:55;;;;;;;24.63;12.47;;;;;;;1.93;66.30;101424.97;5138941;27;20434;-56
2021/03/10 01:03:22;;;;;;;24.77;12.67;;;;;;;1.86;66.69;101425.22;5135303;27;20472;-53
2021/03/10 01:05:49;;;;;;;26.20;12.67;;;;;;;1.89;66.60;101425.47;5135778;27;20456;-52
2021/03/10 01:08:16;;;;;;;25.30;12.77;;;;;;;1.83;66.38;101435.09;5118304;27;20466;-54
2021/03/10 01:10:43;;;;;;;25.40;13.40;;;;;;;1.85;66.76;101428.50;5135390;27;20731;-53
2021/03/10 01:13:09;;;;;;;22.70;11.10;;;;;;;1.82;66.25;101430.78;5132992;27;20437;-55
2021/03/10 01:15:36;;;;;;;26.43;12.30;;;;;;;1.84;66.51;101421.63;5135475;27;20904;-56
2021/03/10 01:18:03;;;;;;;23.20;11.93;;;;;;;1.84;66.26;101431.81;5140456;27;20502;-52
2021/03/10 01:20:30;;;;;;;23.93;11.93;;;;;;;1.79;66.69;101421.22;5154394;27;20469;-51
2021/03/10 01:22:57;;;;;;;25.93;13.20;;;;;;;1.73;67.02;101419.03;5154240;27;20542;-57
2021/03/10 01:25:25;;;;;;;23.57;11.63;;;;;;;1.73;67.08;101418.13;5154832;27;20458;-55
2021/03/10 01:27:52;;;;;;;24.83;12.10;;;;;;;1.69;66.88;101416.09;5153476;27;20525;-55
2021/03/10 01:30:19;;;;;;;22.43;11.97;;;;;;;1.74;66.76;101420.81;5135400;27;20760;-55
2021/03/10 01:32:46;;;;;;;34.90;16.30;;;;;;;1.70;66.96;101413.66;5137294;27;20444;-53
2021/03/10 01:35:14;;;;;;;22.93;11.57;;;;;;;1.67;67.03;101417.59;5139904;27;20479;-54
2021/03/10 01:37:40;;;;;;;25.57;12.10;;;;;;;1.66;67.23;101421.81;5148057;27;20770;-53
2021/03/10 01:40:09;;;;;;;24.10;12.87;;;;;;;1.65;67.03;101422.56;5145666;27;20467;-51
2021/03/10 01:42:37;;;;;;;24.50;12.73;;;;;;;1.56;67.27;101420.09;5154806;27;20430;-48
2021/03/10 01:45:04;;;;;;;25.03;12.97;;;;;;;1.61;67.35;101423.03;5151786;27;20566;-55
2021/03/10 01:47:33;;;;;;;27.43;13.63;;;;;;;1.68;67.18;101415.19;5141537;27;20437;-55
2021/03/10 01:50:00;;;;;;;29.27;13.53;;;;;;;1.58;67.28;101415.13;5157844;27;20550;-56
2021/03/10 01:52:27;;;;;;;28.53;14.23;;;;;;;1.58;67.47;101416.03;5158998;27;20487;-53
2021/03/10 01:54:54;;;;;;;22.97;13.13;;;;;;;1.51;67.66;101416.25;5156173;27;20474;-53
2021/03/10 01:57:20;;;;;;;22.90;12.40;;;;;;;1.51;67.65;101417.88;5159149;27;20548;-53
2021/03/10 01:59:48;;;;;;;19.47;11.20;;;;;;;1.47;67.87;101410.00;5147203;27;20478;-53
2021/03/10 02:02:15;;;;;;;26.30;13.00;;;;;;;1.47;67.90;101415.09;5160034;27;20508;-55
2021/03/10 02:04:42;;;;;;;31.03;12.43;;;;;;;1.50;67.76;101408.47;5144257;27;20456;-56
2021/03/10 02:07:12;;;;;;;22.37;12.20;;;;;;;1.50;67.79;101408.47;5160151;27;20421;-51
2021/03/10 02:09:46;;;;;;;25.37;13.40;;;;;;;1.51;67.63;101413.69;5154528;27;20523;-51
2021/03/10 02:12:16;;;;;;;27.70;13.50;;;;;;;1.54;67.72;101413.09;5159943;27;20429;-51
2021/03/10 02:14:52;;;;;;;32.73;13.90;;;;;;;1.53;67.48;101416.38;5155855;27;20450;-57
2021/03/10 02:17:21;;;;;;;27.00;13.17;;;;;;;1.48;67.83;101421.94;5159883;27;20449;-49
2021/03/10 02:20:03;;;;;;;23.10;11.63;;;;;;;1.51;67.75;101420.44;5157227;27;20478;-51
2021/03/10 02:22:49;;;;;;;26.33;12.53;;;;;;;1.49;67.73;101420.31;5160155;27;20900;-53
2021/03/10 02:25:24;;;;;;;25.40;12.77;;;;;;;1.43;68.00;101424.84;5159591;27;20426;-55
2021/03/10 02:27:52;;;;;;;25.93;12.70;;;;;;;1.50;68.10;101417.00;5158480;27;20466;-55
2021/03/10 02:30:21;;;;;;;28.33;13.17;;;;;;;1.50;68.22;101428.81;5159711;27;20482;-52
2021/03/10 02:32:55;;;;;;;22.17;12.30;;;;;;;1.58;67.72;101422.75;5159706;27;20440;-53
2021/03/10 02:35:23;;;;;;;27.57;13.30;;;;;;;1.53;68.06;101416.38;5158790;27;20579;-54
2021/03/10 02:37:52;;;;;;;24.03;12.30;;;;;;;1.48;67.98;101406.69;5142159;27;20462;-56
2021/03/10 02:40:19;;;;;;;24.60;12.00;;;;;;;1.44;67.94;101413.91;5124947;27;20455;-55
2021/03/10 02:42:47;;;;;;;28.50;12.93;;;;;;;1.42;68.14;101417.94;5138838;27;20467;-51
2021/03/10 02:45:14;;;;;;;25.73;13.00;;;;;;;1.39;68.20;101413.47;5135052;27;20472;-51
2021/03/10 02:47:41;;;;;;;24.50;12.90;;;;;;;1.33;68.07;101408.75;5148231;27;20966;-52
2021/03/10 02:50:10;;;;;;;28.13;11.83;;;;;;;1.34;68.33;101415.63;5147016;27;20941;-54
2021/03/10 02:52:37;;;;;;;24.63;12.20;;;;;;;1.40;67.86;101414.38;5159907;27;20434;-54
2021/03/10 02:55:04;;;;;;;24.77;12.23;;;;;;;1.45;67.58;101415.69;5152065;27;20454;-50
2021/03/10 02:57:32;;;;;;;27.93;12.70;;;;;;;1.47;67.70;101420.16;5159937;27;20475;-53
2021/03/10 03:00:09;;;;;;;29.77;12.97;;;;;;;1.48;67.42;101421.94;5158714;27;20795;-57
2021/03/10 03:02:37;;;;;;;29.37;13.43;;;;;;;1.41;67.55;101414.53;5159887;27;20514;-55
2021/03/10 03:05:05;;;;;;;23.40;11.50;;;;;;;1.42;67.13;101415.41;5158412;27;20445;-55
2021/03/10 03:07:32;;;;;;;25.90;12.03;;;;;;;1.38;67.44;101414.25;5159811;27;20428;-51
2021/03/10 03:09:59;;;;;;;26.57;12.83;;;;;;;1.47;67.10;101411.63;5158921;27;20479;-52
2021/03/10 03:12:26;;;;;;;22.07;11.20;;;;;;;1.40;66.62;101407.66;5159599;27;20429;-51
2021/03/10 03:14:53;;;;;;;27.23;12.53;;;;;;;1.33;66.80;101407.88;5157915;27;20480;-51
2021/03/10 03:17:20;;;;;;;20.80;11.33;;;;;;;1.33;66.06;101411.28;5159194;27;20479;-52
2021/03/10 03:19:47;;;;;;;20.67;10.80;;;;;;;1.44;65.65;101414.78;5158085;27;20939;-55
2021/03/10 03:22:15;;;;;;;25.90;11.13;;;;;;;1.46;65.85;101422.56;5159915;27;20463;-55
2021/03/10 03:24:42;;;;;;;20.80;10.43;;;;;;;1.40;65.36;101415.28;5145975;27;20660;-56
2021/03/10 03:27:09;;;;;;;22.80;10.77;;;;;;;1.58;65.18;101407.50;5151897;27;20439;-50
2021/03/10 03:29:36;;;;;;;20.83;10.57;;;;;;;1.56;64.64;101409.00;5130379;27;20538;-54
2021/03/10 03:32:03;;;;;;;23.00;11.13;;;;;;;1.51;64.66;101407.72;5138103;27;20874;-51
2021/03/10 03:34:30;;;;;;;22.43;10.73;;;;;;;1.50;64.92;101398.28;5130112;27;20576;-54
2021/03/10 03:36:57;;;;;;;21.47;10.40;;;;;;;1.50;64.85;101398.28;5138168;27;20901;-51
2021/03/10 03:39:25;;;;;;;24.60;10.90;;;;;;;1.42;64.29;101397.59;5136945;27;20455;-51
2021/03/10 03:41:52;;;;;;;23.00;10.10;;;;;;;1.37;64.42;101399.75;5138704;27;20435;-53
2021/03/10 03:44:19;;;;;;;19.23;10.03;;;;;;;1.33;65.19;101396.03;5125265;27;21006;-54
2021/03/10 03:46:46;;;;;;;21.10;10.23;;;;;;;1.34;65.26;101389.31;5138201;27;20490;-53
2021/03/10 03:49:15;;;;;;;19.83;9.90;;;;;;;1.29;64.55;101380.38;5136869;27;20483;-55
2021/03/10 03:51:42;;;;;;;19.40;9.33;;;;;;;1.20;64.04;101373.72;5138409;27;20772;-54
2021/03/10 03:54:09;;;;;;;22.30;9.90;;;;;;;1.20;63.87;101376.28;5123842;27;20480;-54
2021/03/10 03:56:36;;;;;;;19.70;9.70;;;;;;;1.15;63.92;101374.97;5137977;27;20568;-53
2021/03/10 03:59:05;;;;;;;18.27;8.73;;;;;;;1.02;64.43;101377.16;5125507;27;20536;-54
2021/03/10 04:01:31;;;;;;;19.10;9.20;;;;;;;1.06;63.97;101381.75;5137756;27;20431;-55
2021/03/10 04:03:58;;;;;;;22.07;9.50;;;;;;;1.01;64.18;101380.44;5137259;27;20481;-55
2021/03/10 04:06:25;;;;;;;21.20;9.45;;;;;;;1.02;63.87;101378.03;5138158;27;20546;-52
2021/03/10 04:08:51;;;;;;;19.57;9.10;;;;;;;1.03;63.20;101382.34;5137019;27;20611;-52
2021/03/10 04:11:19;;;;;;;20.50;8.93;;;;;;;1.07;63.45;101380.97;5137059;27;20429;-52
2021/03/10 04:13:46;;;;;;;19.00;8.80;;;;;;;1.00;63.46;101381.19;5136459;27;20488;-52
2021/03/10 04:16:12;;;;;;;15.70;8.10;;;;;;;0.94;63.61;101374.78;5137402;27;20428;-53
2021/03/10 04:18:41;;;;;;;17.67;8.60;;;;;;;0.99;63.28;101381.94;5136988;27;20876;-54
2021/03/10 04:21:09;;;;;;;18.67;9.63;;;;;;;0.99;63.34;101380.31;5137826;27;20737;-51
2021/03/10 04:23:35;;;;;;;20.60;9.03;;;;;;;0.86;63.33;101385.91;5137052;27;20476;-52
2021/03/10 04:26:02;;;;;;;17.15;8.10;;;;;;;0.88;63.58;101389.47;5136887;27;20427;-52
2021/03/10 04:28:29;;;;;;;15.77;8.05;;;;;;;0.91;63.26;101386.31;5136297;27;20321;-55
2021/03/10 04:30:56;;;;;;;16.40;8.33;;;;;;;1.05;62.96;101385.03;5137265;27;20290;-54
2021/03/10 04:33:23;;;;;;;20.00;9.03;;;;;;;1.06;62.89;101389.38;5136141;27;20443;-51
2021/03/10 04:35:49;;;;;;;16.77;8.00;;;;;;;0.89;63.13;101391.28;5136967;27;21131;-53
2021/03/10 04:38:26;;;;;;;17.13;8.40;;;;;;;0.85;63.47;101394.28;5136270;27;20500;-52
2021/03/10 04:40:53;;;;;;;19.20;8.90;;;;;;;0.89;63.61;101395.47;5137157;27;20462;-54
2021/03/10 04:43:19;;;;;;;17.88;8.43;;;;;;;0.78;63.57;101392.81;5136026;27;20470;-53
2021/03/10 04:45:47;;;;;;;17.70;8.67;;;;;;;0.70;63.63;101397.97;5136469;27;20285;-55
2021/03/10 04:48:14;;;;;;;21.00;8.63;;;;;;;0.76;63.66;101394.34;5136155;27;20472;-53
2021/03/10 04:50:40;;;;;;;15.87;8.60;;;;;;;0.75;63.76;101397.66;5137134;27;20470;-53
2021/03/10 04:53:07;;;;;;;19.17;8.68;;;;;;;0.61;64.22;101408.19;5135716;27;20437;-56
2021/03/10 04:55:34;;;;;;;17.73;8.53;;;;;;;0.61;63.78;101396.38;5136527;27;20204;-55
2021/03/10 04:58:00;;;;;;;15.50;8.50;;;;;;;0.53;64.01;101400.72;5135967;27;20515;-55
2021/03/10 05:00:27;;;;;;;24.92;8.75;;;;;;;0.53;63.83;101402.41;5136894;27;20227;-54
2021/03/10 05:02:54;;;;;;;20.30;7.60;;;;;;;0.48;64.17;101401.97;5135547;27;20209;-52
2021/03/10 05:05:21;;;;;;;15.25;7.95;;;;;;;0.41;64.02;101394.50;5136041;27;20320;-54
2021/03/10 05:07:48;;;;;;;14.63;7.73;;;;;;;0.28;64.42;101379.81;5136787;27;20222;-55
2021/03/10 05:10:15;;;;;;;17.67;8.20;;;;;;;0.24;64.19;101382.78;5135970;27;20462;-51
2021/03/10 05:12:41;;;;;;;13.75;7.32;;;;;;;0.21;64.54;101388.47;5136550;27;20203;-51
2021/03/10 05:15:09;;;;;;;20.83;8.65;;;;;;;0.15;64.42;101374.34;5134971;27;20261;-55
2021/03/10 05:17:36;;;;;;;16.65;8.07;;;;;;;0.06;64.78;101379.44;5136620;27;20309;-51
2021/03/10 05:20:06;;;;;;;17.77;7.72;;;;;;;0.05;64.55;101378.53;5135184;27;20233;-51
2021/03/10 05:22:32;;;;;;;17.50;7.35;;;;;;;0.16;64.57;101383.72;5136318;27;20203;-53
2021/03/10 05:24:59;;;;;;;17.48;7.95;;;;;;;0.13;64.15;101385.25;5134466;27;20332;-51
2021/03/10 05:27:25;;;;;;;17.58;8.27;;;;;;;0.08;64.34;101385.53;5136365;27;20195;-50
2021/03/10 05:29:52;;;;;;;14.10;7.28;;;;;;;0.03;64.82;101385.13;5134799;27;20612;-54
2021/03/10 05:32:18;;;;;;;15.10;7.00;;;;;;;0.03;64.29;101385.13;5136450;27;20199;-51
2021/03/10 05:34:45;;;;;;;16.63;8.02;;;;;;;0.00;64.08;101384.84;5134932;27;20552;-49
2021/03/10 05:37:13;;;;;;;17.88;7.72;;;;;;;0.01;64.23;101390.78;5136150;27;20205;-57
2021/03/10 05:39:40;;;;;;;15.10;7.28;;;;;;;-0.03;63.88;101379.47;5135121;27;20662;-49
2021/03/10 05:42:07;;;;;;;16.00;7.45;;;;;;;-0.14;64.67;101386.94;5135940;27;20198;-50
2021/03/10 05:44:34;;;;;;;16.80;7.45;;;;;;;-0.10;64.60;101382.16;5134611;27;20655;-57
2021/03/10 05:47:01;;;;;;;15.10;7.15;;;;;;;-0.12;64.66;101383.69;5136091;28;20206;-57
2021/03/10 05:49:28;;;;;;;15.98;7.70;;;;;;;-0.26;64.72;101378.16;5134629;27;20330;-51
2021/03/10 05:51:55;;;;;;;16.52;7.85;;;;;;;-0.11;64.73;101381.25;5135662;28;20222;-51
2021/03/10 05:54:22;;;;;;;14.70;7.15;;;;;;;0.00;64.48;101392.47;5133237;27;20235;-54
2021/03/10 05:56:49;;;;;;;16.75;6.88;;;;;;;-0.12;64.03;101383.69;5135644;28;20218;-53
2021/03/10 05:59:16;;;;;;;16.55;7.43;;;;;;;-0.09;64.08;101396.66;5134381;27;20248;-55
2021/03/10 06:01:42;;;;;;;17.27;7.43;;;;;;;-0.10;64.38;101388.13;5135666;28;20279;-52
2021/03/10 06:04:09;;;;;;;15.88;7.07;;;;;;;-0.11;63.30;101391.41;5134445;27;20329;-53
2021/03/10 06:06:37;;;;;;;20.60;7.35;;;;;;;-0.27;63.69;101389.06;5135861;28;20203;-54
2021/03/10 06:09:14;;;;;;;19.50;7.63;;;;;;;-0.34;64.62;101392.66;5133795;27;20539;-51
2021/03/10 06:11:54;;;;;;;14.15;6.82;;;;;;;-0.27;63.30;101396.66;5135904;28;20205;-53
2021/03/10 06:14:21;;;;;;;18.20;7.65;;;;;;;-0.15;63.22;101395.31;5134016;27;20324;-55
2021/03/10 06:16:47;;;;;;;15.57;7.10;;;;;;;-0.15;63.07;101399.50;5135342;28;20198;-51
2021/03/10 06:19:14;;;;;;;14.13;6.45;;;;;;;-0.08;62.99;101390.81;5117313;27;20244;-51
2021/03/10 06:21:50;;;;;;;13.10;6.85;;;;;;;-0.02;63.34;101391.41;5135936;28;21006;-55
2021/03/10 06:24:18;;;;;;;17.67;7.45;;;;;;;0.09;62.81;101395.84;5123239;27;20317;-54
2021/03/10 06:26:54;;;;;;;15.75;6.80;;;;;;;-0.21;63.20;101397.25;5135483;28;20495;-54
2021/03/10 06:29:20;;;;;;;14.50;7.50;;;;;;;-0.26;63.63;101395.91;5133273;27;20613;-53
2021/03/10 06:31:47;;;;;;;11.75;6.30;;;;;;;-0.26;63.12;101400.13;5135469;28;20203;-53
2021/03/10 06:34:16;;;;;;;13.65;6.50;;;;;;;-0.02;62.88;101396.47;5136007;27;20355;-53
2021/03/10 06:36:47;;;;;;;16.13;6.85;;;;;;;0.19;62.61;101401.78;5138962;27;20210;-57
2021/03/10 06:39:24;;;;;;;15.75;6.60;;;;;;;0.16;62.71;101396.44;5135466;27;20804;-54
2021/03/10 06:41:50;;;;;;;12.82;6.45;;;;;;;0.04;63.06;101402.13;5130452;27;20267;-55
2021/03/10 06:44:20;;;;;;;18.40;6.93;;;;;;;0.06;63.00;101400.63;5117591;27;20245;-54
2021/03/10 06:46:54;;;;;;;14.43;7.25;;;;;;;0.25;62.89;101404.88;5152401;27;20634;-53
2021/03/10 06:49:22;;;;;;;14.93;6.65;;;;;;;0.25;62.70;101402.34;5134935;27;20246;-49
2021/03/10 06:51:53;;;;;;;15.43;6.50;;;;;;;0.39;61.78;101416.34;5139746;27;20255;-51
2021/03/10 06:54:20;;;;;;;18.52;6.68;;;;;;;0.47;60.98;101417.94;5119640;27;20536;-55
2021/03/10 06:56:58;;;;;;;17.35;6.63;;;;;;;0.36;61.35;101411.88;5139702;27;20297;-51
2021/03/10 06:59:26;;;;;;;13.90;6.75;;;;;;;0.25;61.66;101409.97;5138861;27;20240;-54
2021/03/10 07:01:53;;;;;;;13.63;6.85;;;;;;;0.48;61.40;101416.31;5138874;27;20516;-52
2021/03/10 07:04:20;;;;;;;16.33;6.90;;;;;;;0.37;61.29;101422.94;5136038;27;20237;-51
2021/03/10 07:06:49;;;;;;;13.40;6.68;;;;;;;0.31;62.08;101418.16;5138410;27;20234;-53
2021/03/10 07:09:17;;;;;;;20.08;6.50;;;;;;;0.55;61.65;101416.13;5138454;27;20259;-53
2021/03/10 07:11:45;;;;;;;18.73;6.85;;;;;;;0.57;61.65;101417.19;5139444;27;20199;-53
2021/03/10 07:14:13;;;;;;;16.33;7.20;;;;;;;0.58;61.61;101424.03;5127399;27;20266;-52
2021/03/10 07:16:41;;;;;;;16.90;5.97;;;;;;;0.55;61.57;101433.03;5141318;27;20245;-51
2021/03/10 07:19:10;;;;;;;23.67;7.30;;;;;;;0.63;61.13;101434.63;5125454;27;20223;-55
2021/03/10 07:21:41;;;;;;;14.48;6.88;;;;;;;0.63;61.54;101430.44;5138194;27;20207;-56
2021/03/10 07:24:15;;;;;;;16.27;7.50;;;;;;;0.84;61.09;101428.09;5124243;27;20241;-54
2021/03/10 07:26:43;;;;;;;16.23;7.30;;;;;;;0.95;61.07;101423.97;5148524;27;20465;-55
2021/03/10 07:29:11;;;;;;;14.93;6.80;;;;;;;1.08;60.98;101429.41;5139604;27;20517;-56
2021/03/10 07:31:38;;;;;;;39.03;16.30;;;;;;;1.10;62.01;101426.13;5155190;27;20473;-55
2021/03/10 07:34:06;;;;;;;17.23;8.20;;;;;;;0.98;60.48;101429.38;5154195;27;20777;-54
2021/03/10 07:36:35;;;;;;;16.77;7.40;;;;;;;0.98;61.33;101421.72;5155850;27;20583;-56
2021/03/10 07:39:02;;;;;;;20.17;7.77;;;;;;;1.11;61.31;101422.81;5151800;27;20284;-55
2021/03/10 07:41:33;;;;;;;17.15;7.78;;;;;;;1.21;61.14;101428.00;5153252;27;20587;-56
2021/03/10 07:44:00;;;;;;;17.10;8.03;;;;;;;1.15;61.02;101433.44;5149334;27;20229;-53
2021/03/10 07:46:29;;;;;;;15.47;7.60;;;;;;;1.34;60.34;101430.00;5152362;27;20622;-53
2021/03/10 07:48:57;;;;;;;18.97;8.50;;;;;;;1.25;60.47;101427.53;5153118;27;20454;-51
2021/03/10 07:51:30;;;;;;;17.27;8.18;;;;;;;1.31;60.69;101427.16;5150658;27;20464;-54
2021/03/10 07:53:57;;;;;;;21.07;9.20;;;;;;;1.40;60.89;101424.56;5139739;27;20229;-52
2021/03/10 07:56:25;;;;;;;21.40;8.95;;;;;;;1.57;60.29;101426.06;5155225;27;20489;-55
2021/03/10 07:58:52;;;;;;;18.70;8.40;;;;;;;1.43;60.47;101423.19;5151640;27;20543;-52
2021/03/10 08:01:18;;;;;;;17.50;8.73;;;;;;;1.46;60.48;101418.38;5146233;27;20430;-52
2021/03/10 08:03:45;;;;;;;21.17;10.03;;;;;;;1.47;61.06;101420.16;5142829;27;20487;-52
2021/03/10 08:06:13;;;;;;;20.17;9.03;;;;;;;1.66;60.86;101426.88;5145925;27;20465;-53
2021/03/10 08:08:41;;;;;;;17.17;8.27;;;;;;;1.61;60.95;101420.50;5147451;27;20451;-54
2021/03/10 08:11:13;;;;;;;18.80;8.90;;;;;;;1.63;60.91;101426.59;5155119;27;20482;-53
2021/03/10 08:13:41;;;;;;;19.50;8.47;;;;;;;1.61;60.86;101421.41;5134815;27;20468;-54
2021/03/10 08:16:09;;;;;;;18.50;8.87;;;;;;;1.58;60.89;101416.03;5153583;27;20430;-52
2021/03/10 08:18:36;;;;;;;21.03;8.97;;;;;;;1.50;61.39;101427.19;5140146;27;20480;-53
2021/03/10 08:21:09;;;;;;;21.10;10.20;;;;;;;1.39;62.69;101425.31;5154124;27;20466;-55
2021/03/10 08:23:35;;;;;;;24.03;10.70;;;;;;;1.53;61.88;101429.09;5139707;27;20790;-51
2021/03/10 08:26:04;;;;;;;19.55;10.38;;;;;;;1.66;62.25;101431.06;5148985;27;20524;-52
2021/03/10 08:28:34;;;;;;;24.60;11.00;;;;;;;1.83;61.71;101425.81;5134455;27;20244;-50
2021/03/10 08:31:04;;;;;;;20.67;9.07;;;;;;;1.83;62.22;101430.00;5137018;27;20448;-55
2021/03/10 08:33:31;;;;;;;19.67;9.40;;;;;;;1.74;62.55;101433.53;5121658;27;20459;-53
2021/03/10 08:35:58;;;;;;;22.47;10.67;;;;;;;1.85;62.89;101439.56;5145170;27;20511;-55
2021/03/10 08:38:30;;;;;;;22.53;10.77;;;;;;;1.99;63.01;101430.59;5139684;27;20449;-54
2021/03/10 08:41:04;;;;;;;21.73;10.47;;;;;;;2.12;62.57;101431.66;5144474;27;20440;-51
2021/03/10 08:43:30;;;;;;;26.90;11.10;;;;;;;2.11;63.04;101427.34;5134852;27;20450;-55
2021/03/10 08:45:57;;;;;;;28.70;11.40;;;;;;;2.34;62.79;101424.22;5136961;27;20456;-56
2021/03/10 08:48:32;;;;;;;20.53;10.50;;;;;;;2.23;62.79;101423.31;5138268;27;20454;-56
2021/03/10 08:51:00;;;;;;;25.83;10.40;;;;;;;2.22;63.41;101418.97;5137074;27;20438;-53
2021/03/10 08:53:27;;;;;;;22.93;11.37;;;;;;;2.11;64.61;101424.78;5141697;27;20478;-51
2021/03/10 08:56:05;;;;;;;22.37;10.37;;;;;;;1.90;66.12;101427.28;5148038;27;20441;-51
2021/03/10 08:58:31;;;;;;;30.13;13.77;;;;;;;1.98;67.11;101416.09;5139760;27;20541;-54
2021/03/10 09:01:01;;;;;;;28.60;13.17;;;;;;;2.04;67.20;101409.75;5153579;27;20557;-53
2021/03/10 09:03:28;;;;;;;30.23;13.80;;;;;;;2.12;67.41;101404.56;5148126;27;20555;-52
2021/03/10 09:06:00;;;;;;;30.07;13.20;;;;;;;2.23;67.64;101395.31;5153434;27;20946;-54
2021/03/10 09:08:27;;;;;;;30.70;14.27;;;;;;;2.43;67.85;101383.38;5130926;27;20540;-56
2021/03/10 09:10:54;;;;;;;30.20;14.07;;;;;;;2.58;67.84;101385.41;5153223;27;20472;-54
2021/03/10 09:13:22;;;;;;;37.73;16.30;;;;;;;2.31;69.73;101389.97;5135835;27;20455;-55
2021/03/10 09:15:49;;;;;;;37.43;14.63;;;;;;;2.59;69.04;101387.19;5140060;27;20546;-51
2021/03/10 09:18:16;;;;;;;30.50;13.60;;;;;;;2.64;68.50;101383.38;5141075;27;20491;-51
2021/03/10 09:20:44;;;;;;;38.80;17.90;;;;;;;2.74;69.10;101379.94;5152768;27;20627;-50
2021/03/10 09:23:12;;;;;;;38.43;16.27;;;;;;;2.73;69.60;101373.97;5138980;27;20871;-53
2021/03/10 09:25:41;;;;;;;34.33;16.50;;;;;;;2.67;70.49;101376.00;5153505;27;20502;-53
2021/03/10 09:28:10;;;;;;;37.57;16.13;;;;;;;2.37;71.29;101377.75;5138126;27;20480;-51
2021/03/10 09:30:39;;;;;;;39.97;18.20;;;;;;;2.69;71.66;101371.94;5135444;27;20463;-52
2021/03/10 09:33:06;;;;;;;40.00;17.10;;;;;;;2.73;71.05;101367.97;5119561;27;20548;-51
2021/03/10 09:35:36;;;;;;;37.77;17.53;;;;;;;2.72;71.19;101377.25;5133640;27;20471;-51
2021/03/10 09:38:04;;;;;;;38.50;17.73;;;;;;;2.82;70.73;101374.72;5114917;27;20549;-53
2021/03/10 09:40:39;;;;;;;37.70;17.43;;;;;;;2.72;70.83;101379.81;5134460;27;20797;-49
2021/03/10 09:43:08;;;;;;;34.00;15.77;;;;;;;2.89;70.59;101372.69;5130039;27;20542;-54
2021/03/10 09:45:37;;;;;;;35.93;16.83;;;;;;;2.81;70.90;101375.50;5132267;27;20551;-52
2021/03/10 09:48:07;;;;;;;35.57;16.20;;;;;;;3.04;70.09;101363.78;5130046;27;20450;-53
2021/03/10 09:50:37;;;;;;;37.17;17.23;;;;;;;3.15;69.69;101366.28;5125881;28;20434;-52
2021/03/10 09:53:15;;;;;;;35.67;15.93;;;;;;;3.17;69.25;101364.78;5141327;27;20774;-55
2021/03/10 09:55:42;;;;;;;39.07;16.70;;;;;;;3.07;70.39;101369.09;5135322;28;20455;-52
2021/03/10 09:58:10;;;;;;;29.80;10.67;;;;;;;2.87;70.91;101371.69;5149315;27;20464;-51
2021/03/10 10:00:38;;;;;;;35.37;16.47;;;;;;;2.96;71.54;101352.03;5136170;27;20452;-55
2021/03/10 10:03:07;;;;;;;31.47;12.40;;;;;;;2.81;70.90;101357.66;5123402;27;20466;-51
2021/03/10 10:05:36;;;;;;;37.80;17.30;;;;;;;2.88;71.40;101355.63;5137132;27;20539;-51
2021/03/10 10:08:05;;;;;;;35.80;17.13;;;;;;;3.14;70.71;101350.09;5130705;27;20443;-53
2021/03/10 10:10:33;;;;;;;43.37;18.77;;;;;;;3.15;70.47;101345.88;5138079;27;20522;-53
2021/03/10 10:13:01;;;;;;;36.40;13.23;;;;;;;3.08;70.66;101355.59;5122674;27;20826;-52
2021/03/10 10:15:30;;;;;;;39.37;16.53;;;;;;;2.75;71.16;101354.59;5135321;27;20465;-53
2021/03/10 10:17:59;;;;;;;39.13;18.50;;;;;;;2.96;71.19;101349.47;5137821;27;20934;-55
2021/03/10 10:20:28;;;;;;;35.63;16.43;;;;;;;3.14;70.13;101351.75;5143393;27;20558;-51
2021/03/10 10:22:55;;;;;;;30.03;15.60;;;;;;;3.14;69.83;101345.00;5136087;27;20427;-54
2021/03/10 10:25:26;;;;;;;32.80;16.17;;;;;;;3.10;70.08;101343.88;5139106;27;20489;-51
2021/03/10 10:27:58;;;;;;;31.13;14.07;;;;;;;2.99;70.62;101349.75;5123719;27;20487;-56
2021/03/10 10:30:25;;;;;;;36.77;15.73;;;;;;;2.94;70.89;101351.03;5138414;27;20480;-50
2021/03/10 10:32:51;;;;;;;31.47;14.73;;;;;;;2.99;70.87;101339.53;5137602;27;20464;-52
2021/03/10 10:35:20;;;;;;;23.23;10.37;;;;;;;2.97;70.91;101335.97;5138212;27;20878;-49
2021/03/10 10:37:49;;;;;;;42.10;18.23;;;;;;;3.24;70.36;101326.25;5138690;27;21005;-51
2021/03/10 10:40:18;;;;;;;34.57;15.93;;;;;;;3.30;70.21;101336.03;5139112;27;20431;-52
2021/03/10 10:42:52;;;;;;;32.63;14.30;;;;;;;3.63;69.43;101322.53;5127278;27;20470;-54
2021/03/10 10:45:19;;;;;;;34.37;15.97;;;;;;;3.65;68.80;101326.06;5138605;27;20450;-51
2021/03/10 10:47:46;;;;;;;40.40;14.40;;;;;;;3.49;68.80;101325.66;5138707;27;20558;-53
2021/03/10 10:50:14;;;;;;;34.23;17.10;;;;;;;3.74;68.88;101315.69;5137950;27;20439;-52
2021/03/10 10:52:42;;;;;;;38.00;17.70;;;;;;;4.08;68.08;101314.88;5138630;27;20437;-50
2021/03/10 10:55:11;;;;;;;34.77;16.87;;;;;;;3.94;68.58;101318.03;5137053;27;20438;-52
2021/03/10 10:57:38;;;;;;;36.20;18.37;;;;;;;4.15;68.32;101318.81;5138460;27;20944;-53
2021/03/10 11:00:06;;;;;;;40.60;17.20;;;;;;;4.25;68.09;101320.41;5137717;27;20944;-55
2021/03/10 11:02:33;;;;;;;34.10;17.40;;;;;;;4.25;68.24;101312.75;5138229;27;20489;-50
2021/03/10 11:05:00;;;;;;;33.90;16.07;;;;;;;4.18;68.44;101304.63;5144210;27;20946;-52
2021/03/10 11:07:26;;;;;;;31.90;16.27;;;;;;;4.02;68.51;101312.75;5147314;27;20892;-53
2021/03/10 11:09:53;;;;;;;40.83;18.10;;;;;;;4.10;68.95;101310.78;5144784;27;20522;-53
2021/03/10 11:12:21;;;;;;;36.17;18.50;;;;;;;4.42;67.79;101307.22;5138000;27;20815;-50
2021/03/10 11:14:47;;;;;;;39.93;18.90;;;;;;;4.56;67.55;101310.81;5137383;27;20475;-54
2021/03/10 11:17:14;;;;;;;36.10;17.47;;;;;;;4.25;68.11;101307.63;5138555;27;20468;-52
2021/03/10 11:19:41;;;;;;;35.67;16.07;;;;;;;4.03;69.08;101303.41;5137012;27;20813;-54
2021/03/10 11:22:07;;;;;;;37.70;17.83;;;;;;;4.14;69.02;101312.81;5138541;27;20438;-52
2021/03/10 11:24:35;;;;;;;34.27;14.97;;;;;;;4.09;69.61;101303.03;5122621;27;20929;-51